sensor_id;sensor_type;location;lat;lon;timestamp;temperature;humidity
2220;DHT22;1116;51.502;7.414;2024-01-27T00:02:13;6.40;56.80
2220;DHT22;1116;51.502;7.414;2024-01-27T00:04:43;6.40;56.90
2220;DHT22;1116;51.502;7.414;2024-01-27T00:07:13;6.40;56.80
2220;DHT22;1116;51.502;7.414;2024-01-27T00:09:43;6.40;56.90
2220;DHT22;1116;51.502;7.414;2024-01-27T00:12:13;6.40;57.30
2220;DHT22;1116;51.502;7.414;2024-01-27T00:14:43;6.30;56.80
2220;DHT22;1116;51.502;7.414;2024-01-27T00:17:16;6.30;57.40
2220;DHT22;1116;51.502;7.414;2024-01-27T00:19:48;6.20;57.10
2220;DHT22;1116;51.502;7.414;2024-01-27T00:22:18;6.20;57.60
2220;DHT22;1116;51.502;7.414;2024-01-27T00:24:48;6.20;58.00
2220;DHT22;1116;51.502;7.414;2024-01-27T00:27:18;6.30;57.60
2220;DHT22;1116;51.502;7.414;2024-01-27T00:29:48;6.30;57.60
2220;DHT22;1116;51.502;7.414;2024-01-27T00:32:20;6.30;57.50
2220;DHT22;1116;51.502;7.414;2024-01-27T00:34:50;6.30;57.50
2220;DHT22;1116;51.502;7.414;2024-01-27T00:37:20;6.20;57.20
2220;DHT22;1116;51.502;7.414;2024-01-27T00:39:50;6.30;57.20
2220;DHT22;1116;51.502;7.414;2024-01-27T00:42:20;6.30;57.60
2220;DHT22;1116;51.502;7.414;2024-01-27T00:44:51;6.20;57.60
2220;DHT22;1116;51.502;7.414;2024-01-27T00:47:24;6.20;57.80
2220;DHT22;1116;51.502;7.414;2024-01-27T00:49:54;6.20;58.00
2220;DHT22;1116;51.502;7.414;2024-01-27T00:52:24;6.20;57.50
2220;DHT22;1116;51.502;7.414;2024-01-27T00:54:54;6.20;57.30
2220;DHT22;1116;51.502;7.414;2024-01-27T00:57:24;6.10;58.00
2220;DHT22;1116;51.502;7.414;2024-01-27T00:59:54;6.20;57.50
2220;DHT22;1116;51.502;7.414;2024-01-27T01:02:26;6.20;57.50
2220;DHT22;1116;51.502;7.414;2024-01-27T01:04:56;6.20;57.70
2220;DHT22;1116;51.502;7.414;2024-01-27T01:07:26;6.20;57.40
2220;DHT22;1116;51.502;7.414;2024-01-27T01:09:56;6.20;57.50
2220;DHT22;1116;51.502;7.414;2024-01-27T01:12:26;6.10;57.40
2220;DHT22;1116;51.502;7.414;2024-01-27T01:14:56;6.10;57.70
2220;DHT22;1116;51.502;7.414;2024-01-27T01:17:28;6.10;57.50
2220;DHT22;1116;51.502;7.414;2024-01-27T01:19:58;6.00;57.50
2220;DHT22;1116;51.502;7.414;2024-01-27T01:22:28;6.00;57.70
2220;DHT22;1116;51.502;7.414;2024-01-27T01:24:58;6.00;57.40
2220;DHT22;1116;51.502;7.414;2024-01-27T01:27:28;6.00;57.40
2220;DHT22;1116;51.502;7.414;2024-01-27T01:29:58;6.00;57.40
2220;DHT22;1116;51.502;7.414;2024-01-27T01:32:30;6.00;57.30
2220;DHT22;1116;51.502;7.414;2024-01-27T01:35:00;6.00;57.50
2220;DHT22;1116;51.502;7.414;2024-01-27T01:37:30;6.00;57.40
2220;DHT22;1116;51.502;7.414;2024-01-27T01:40:00;6.10;57.30
2220;DHT22;1116;51.502;7.414;2024-01-27T01:42:30;6.00;57.00
2220;DHT22;1116;51.502;7.414;2024-01-27T01:45:00;6.00;57.50
2220;DHT22;1116;51.502;7.414;2024-01-27T01:47:32;6.00;57.00
2220;DHT22;1116;51.502;7.414;2024-01-27T01:50:03;6.00;57.50
2220;DHT22;1116;51.502;7.414;2024-01-27T01:52:35;5.90;57.20
2220;DHT22;1116;51.502;7.414;2024-01-27T01:55:06;6.00;57.90
2220;DHT22;1116;51.502;7.414;2024-01-27T01:57:37;6.00;57.10
2220;DHT22;1116;51.502;7.414;2024-01-27T02:00:08;6.00;57.10
2220;DHT22;1116;51.502;7.414;2024-01-27T02:02:43;6.00;57.40
2220;DHT22;1116;51.502;7.414;2024-01-27T02:05:13;5.90;57.40
2220;DHT22;1116;51.502;7.414;2024-01-27T02:07:43;6.00;57.50
2220;DHT22;1116;51.502;7.414;2024-01-27T02:10:14;5.90;57.20
2220;DHT22;1116;51.502;7.414;2024-01-27T02:12:44;6.00;57.60
2220;DHT22;1116;51.502;7.414;2024-01-27T02:15:14;5.90;57.10
2220;DHT22;1116;51.502;7.414;2024-01-27T02:17:47;5.90;57.80
2220;DHT22;1116;51.502;7.414;2024-01-27T02:20:19;5.80;57.70
2220;DHT22;1116;51.502;7.414;2024-01-27T02:22:49;5.90;58.00
2220;DHT22;1116;51.502;7.414;2024-01-27T02:25:22;5.90;57.50
2220;DHT22;1116;51.502;7.414;2024-01-27T02:27:52;5.80;57.60
2220;DHT22;1116;51.502;7.414;2024-01-27T02:30:21;5.80;57.80
2220;DHT22;1116;51.502;7.414;2024-01-27T02:32:52;5.80;57.90
2220;DHT22;1116;51.502;7.414;2024-01-27T02:35:22;5.80;57.90
2220;DHT22;1116;51.502;7.414;2024-01-27T02:37:51;5.70;57.70
2220;DHT22;1116;51.502;7.414;2024-01-27T02:40:24;5.80;57.80
2220;DHT22;1116;51.502;7.414;2024-01-27T02:42:54;5.80;58.00
2220;DHT22;1116;51.502;7.414;2024-01-27T02:45:24;5.70;57.90
2220;DHT22;1116;51.502;7.414;2024-01-27T02:47:54;5.80;58.00
2220;DHT22;1116;51.502;7.414;2024-01-27T02:50:24;5.80;57.50
2220;DHT22;1116;51.502;7.414;2024-01-27T02:52:54;5.80;57.90
2220;DHT22;1116;51.502;7.414;2024-01-27T02:55:26;5.70;57.80
2220;DHT22;1116;51.502;7.414;2024-01-27T02:57:56;5.80;58.00
2220;DHT22;1116;51.502;7.414;2024-01-27T03:00:26;5.80;57.90
2220;DHT22;1116;51.502;7.414;2024-01-27T03:02:56;5.70;57.70
2220;DHT22;1116;51.502;7.414;2024-01-27T03:05:26;5.70;57.90
2220;DHT22;1116;51.502;7.414;2024-01-27T03:07:57;5.70;58.20
2220;DHT22;1116;51.502;7.414;2024-01-27T03:10:29;5.70;58.20
2220;DHT22;1116;51.502;7.414;2024-01-27T03:12:59;5.70;58.10
2220;DHT22;1116;51.502;7.414;2024-01-27T03:15:29;5.70;58.50
2220;DHT22;1116;51.502;7.414;2024-01-27T03:17:59;5.70;57.90
2220;DHT22;1116;51.502;7.414;2024-01-27T03:20:29;5.60;58.10
2220;DHT22;1116;51.502;7.414;2024-01-27T03:23:00;5.70;58.40
2220;DHT22;1116;51.502;7.414;2024-01-27T03:25:33;5.60;57.80
2220;DHT22;1116;51.502;7.414;2024-01-27T03:28:03;5.60;58.30
2220;DHT22;1116;51.502;7.414;2024-01-27T03:30:33;5.50;58.50
2220;DHT22;1116;51.502;7.414;2024-01-27T03:33:04;5.50;58.10
2220;DHT22;1116;51.502;7.414;2024-01-27T03:35:38;5.40;59.10
2220;DHT22;1116;51.502;7.414;2024-01-27T03:38:09;5.50;58.70
2220;DHT22;1116;51.502;7.414;2024-01-27T03:40:41;5.50;58.60
2220;DHT22;1116;51.502;7.414;2024-01-27T03:43:11;5.50;59.00
2220;DHT22;1116;51.502;7.414;2024-01-27T03:45:41;5.50;59.10
2220;DHT22;1116;51.502;7.414;2024-01-27T03:48:11;5.50;59.00
2220;DHT22;1116;51.502;7.414;2024-01-27T03:50:41;5.50;59.10
2220;DHT22;1116;51.502;7.414;2024-01-27T03:53:11;5.40;59.00
2220;DHT22;1116;51.502;7.414;2024-01-27T03:55:44;5.40;59.10
2220;DHT22;1116;51.502;7.414;2024-01-27T03:58:13;5.40;59.20
2220;DHT22;1116;51.502;7.414;2024-01-27T04:00:43;5.50;59.20
2220;DHT22;1116;51.502;7.414;2024-01-27T04:03:13;5.40;59.40
2220;DHT22;1116;51.502;7.414;2024-01-27T04:05:44;5.40;59.50
2220;DHT22;1116;51.502;7.414;2024-01-27T04:08:14;5.40;59.50
2220;DHT22;1116;51.502;7.414;2024-01-27T04:10:47;5.30;59.10
2220;DHT22;1116;51.502;7.414;2024-01-27T04:13:17;5.30;59.10
2220;DHT22;1116;51.502;7.414;2024-01-27T04:15:46;5.40;59.70
2220;DHT22;1116;51.502;7.414;2024-01-27T04:18:18;5.40;59.30
2220;DHT22;1116;51.502;7.414;2024-01-27T04:20:48;5.30;59.30
2220;DHT22;1116;51.502;7.414;2024-01-27T04:23:18;5.30;59.60
2220;DHT22;1116;51.502;7.414;2024-01-27T04:25:50;5.30;59.40
2220;DHT22;1116;51.502;7.414;2024-01-27T04:28:20;5.40;59.60
2220;DHT22;1116;51.502;7.414;2024-01-27T04:30:50;5.40;59.10
2220;DHT22;1116;51.502;7.414;2024-01-27T04:33:20;5.30;59.00
2220;DHT22;1116;51.502;7.414;2024-01-27T04:35:50;5.30;59.20
2220;DHT22;1116;51.502;7.414;2024-01-27T04:38:20;5.30;59.40
2220;DHT22;1116;51.502;7.414;2024-01-27T04:40:53;5.30;58.90
2220;DHT22;1116;51.502;7.414;2024-01-27T04:43:23;5.30;59.70
2220;DHT22;1116;51.502;7.414;2024-01-27T04:45:53;5.30;59.40
2220;DHT22;1116;51.502;7.414;2024-01-27T04:48:23;5.30;59.40
2220;DHT22;1116;51.502;7.414;2024-01-27T04:50:53;5.40;59.40
2220;DHT22;1116;51.502;7.414;2024-01-27T04:53:23;5.30;59.00
2220;DHT22;1116;51.502;7.414;2024-01-27T04:55:56;5.30;59.20
2220;DHT22;1116;51.502;7.414;2024-01-27T04:58:26;5.30;59.10
2220;DHT22;1116;51.502;7.414;2024-01-27T05:00:55;5.30;59.30
2220;DHT22;1116;51.502;7.414;2024-01-27T05:03:25;5.30;59.00
2220;DHT22;1116;51.502;7.414;2024-01-27T05:05:55;5.20;59.10
2220;DHT22;1116;51.502;7.414;2024-01-27T05:08:25;5.20;59.20
2220;DHT22;1116;51.502;7.414;2024-01-27T05:10:58;5.20;59.20
2220;DHT22;1116;51.502;7.414;2024-01-27T05:13:28;5.10;59.40
2220;DHT22;1116;51.502;7.414;2024-01-27T05:15:57;5.00;59.70
2220;DHT22;1116;51.502;7.414;2024-01-27T05:18:27;5.10;60.20
2220;DHT22;1116;51.502;7.414;2024-01-27T05:20:57;5.10;59.90
2220;DHT22;1116;51.502;7.414;2024-01-27T05:23:27;5.10;59.80
2220;DHT22;1116;51.502;7.414;2024-01-27T05:26:00;5.00;59.80
2220;DHT22;1116;51.502;7.414;2024-01-27T05:28:30;5.00;60.20
2220;DHT22;1116;51.502;7.414;2024-01-27T05:31:00;5.00;60.10
2220;DHT22;1116;51.502;7.414;2024-01-27T05:33:30;4.90;60.10
2220;DHT22;1116;51.502;7.414;2024-01-27T05:36:00;4.90;60.30
2220;DHT22;1116;51.502;7.414;2024-01-27T05:38:30;4.90;60.30
2220;DHT22;1116;51.502;7.414;2024-01-27T05:41:03;4.90;60.60
2220;DHT22;1116;51.502;7.414;2024-01-27T05:43:33;4.90;60.80
2220;DHT22;1116;51.502;7.414;2024-01-27T05:46:03;4.90;60.60
2220;DHT22;1116;51.502;7.414;2024-01-27T05:48:33;4.90;60.60
2220;DHT22;1116;51.502;7.414;2024-01-27T05:51:04;4.90;60.60
2220;DHT22;1116;51.502;7.414;2024-01-27T05:53:35;4.90;60.80
2220;DHT22;1116;51.502;7.414;2024-01-27T05:56:08;4.90;60.50
2220;DHT22;1116;51.502;7.414;2024-01-27T05:58:38;4.90;61.10
2220;DHT22;1116;51.502;7.414;2024-01-27T06:01:08;5.00;60.40
2220;DHT22;1116;51.502;7.414;2024-01-27T06:03:40;5.00;60.20
2220;DHT22;1116;51.502;7.414;2024-01-27T06:06:10;5.00;60.10
2220;DHT22;1116;51.502;7.414;2024-01-27T06:08:41;5.00;60.50
2220;DHT22;1116;51.502;7.414;2024-01-27T06:11:13;4.90;60.10
2220;DHT22;1116;51.502;7.414;2024-01-27T06:13:43;4.90;60.30
2220;DHT22;1116;51.502;7.414;2024-01-27T06:16:17;5.00;60.20
2220;DHT22;1116;51.502;7.414;2024-01-27T06:18:47;5.00;60.50
2220;DHT22;1116;51.502;7.414;2024-01-27T06:21:17;5.00;60.80
2220;DHT22;1116;51.502;7.414;2024-01-27T06:23:47;5.10;60.00
2220;DHT22;1116;51.502;7.414;2024-01-27T06:26:20;5.00;59.70
2220;DHT22;1116;51.502;7.414;2024-01-27T06:28:50;5.00;59.50
2220;DHT22;1116;51.502;7.414;2024-01-27T06:31:20;5.00;59.70
2220;DHT22;1116;51.502;7.414;2024-01-27T06:33:50;5.00;59.90
2220;DHT22;1116;51.502;7.414;2024-01-27T06:36:20;4.90;60.10
2220;DHT22;1116;51.502;7.414;2024-01-27T06:38:51;5.00;59.90
2220;DHT22;1116;51.502;7.414;2024-01-27T06:41:24;4.90;59.70
2220;DHT22;1116;51.502;7.414;2024-01-27T06:43:54;5.00;60.20
2220;DHT22;1116;51.502;7.414;2024-01-27T06:46:24;5.00;59.30
2220;DHT22;1116;51.502;7.414;2024-01-27T06:48:54;4.90;59.40
2220;DHT22;1116;51.502;7.414;2024-01-27T06:51:24;4.90;59.80
2220;DHT22;1116;51.502;7.414;2024-01-27T06:53:54;4.80;59.60
2220;DHT22;1116;51.502;7.414;2024-01-27T06:56:27;4.80;60.00
2220;DHT22;1116;51.502;7.414;2024-01-27T06:58:57;4.80;59.70
2220;DHT22;1116;51.502;7.414;2024-01-27T07:01:27;4.80;59.40
2220;DHT22;1116;51.502;7.414;2024-01-27T07:03:57;4.80;59.70
2220;DHT22;1116;51.502;7.414;2024-01-27T07:06:27;4.80;59.80
2220;DHT22;1116;51.502;7.414;2024-01-27T07:08:57;4.90;59.80
2220;DHT22;1116;51.502;7.414;2024-01-27T07:11:29;4.90;59.60
2220;DHT22;1116;51.502;7.414;2024-01-27T07:13:59;4.80;59.40
2220;DHT22;1116;51.502;7.414;2024-01-27T07:16:29;4.80;59.50
2220;DHT22;1116;51.502;7.414;2024-01-27T07:18:59;4.90;59.80
2220;DHT22;1116;51.502;7.414;2024-01-27T07:21:29;4.90;59.80
2220;DHT22;1116;51.502;7.414;2024-01-27T07:23:59;5.00;59.00
2220;DHT22;1116;51.502;7.414;2024-01-27T07:26:32;4.90;59.00
2220;DHT22;1116;51.502;7.414;2024-01-27T07:29:02;5.00;59.50
2220;DHT22;1116;51.502;7.414;2024-01-27T07:31:32;5.00;59.10
2220;DHT22;1116;51.502;7.414;2024-01-27T07:34:02;5.00;58.80
2220;DHT22;1116;51.502;7.414;2024-01-27T07:36:33;5.00;58.90
2220;DHT22;1116;51.502;7.414;2024-01-27T07:39:04;4.90;58.70
2220;DHT22;1116;51.502;7.414;2024-01-27T07:41:37;4.90;59.10
2220;DHT22;1116;51.502;7.414;2024-01-27T07:44:07;4.90;59.40
2220;DHT22;1116;51.502;7.414;2024-01-27T07:46:39;5.00;59.00
2220;DHT22;1116;51.502;7.414;2024-01-27T07:49:09;5.00;59.70
2220;DHT22;1116;51.502;7.414;2024-01-27T07:51:40;5.10;59.10
2220;DHT22;1116;51.502;7.414;2024-01-27T07:54:10;5.10;58.40
2220;DHT22;1116;51.502;7.414;2024-01-27T07:56:42;5.00;58.50
2220;DHT22;1116;51.502;7.414;2024-01-27T07:59:12;5.10;59.00
2220;DHT22;1116;51.502;7.414;2024-01-27T08:01:43;5.10;58.10
2220;DHT22;1116;51.502;7.414;2024-01-27T08:04:13;5.20;58.00
2220;DHT22;1116;51.502;7.414;2024-01-27T08:06:48;5.20;58.20
2220;DHT22;1116;51.502;7.414;2024-01-27T08:09:18;5.20;58.00
2220;DHT22;1116;51.502;7.414;2024-01-27T08:11:51;5.20;57.50
2220;DHT22;1116;51.502;7.414;2024-01-27T08:14:21;5.20;57.90
2220;DHT22;1116;51.502;7.414;2024-01-27T08:16:51;5.30;57.90
2220;DHT22;1116;51.502;7.414;2024-01-27T08:19:24;5.30;57.50
2220;DHT22;1116;51.502;7.414;2024-01-27T08:21:55;5.40;57.20
2220;DHT22;1116;51.502;7.414;2024-01-27T08:24:24;5.40;57.00
2220;DHT22;1116;51.502;7.414;2024-01-27T08:26:57;5.50;57.40
2220;DHT22;1116;51.502;7.414;2024-01-27T08:29:28;5.60;56.80
2220;DHT22;1116;51.502;7.414;2024-01-27T08:31:58;5.60;56.70
2220;DHT22;1116;51.502;7.414;2024-01-27T08:34:28;5.60;56.20
2220;DHT22;1116;51.502;7.414;2024-01-27T08:37:00;5.60;56.30
2220;DHT22;1116;51.502;7.414;2024-01-27T08:39:30;5.70;56.10
2220;DHT22;1116;51.502;7.414;2024-01-27T08:42:03;5.60;55.70
2220;DHT22;1116;51.502;7.414;2024-01-27T08:44:33;5.70;56.20
2220;DHT22;1116;51.502;7.414;2024-01-27T08:47:03;5.70;56.00
2220;DHT22;1116;51.502;7.414;2024-01-27T08:49:34;5.80;55.90
2220;DHT22;1116;51.502;7.414;2024-01-27T08:52:05;5.80;55.30
2220;DHT22;1116;51.502;7.414;2024-01-27T08:54:35;5.90;55.30
2220;DHT22;1116;51.502;7.414;2024-01-27T08:57:08;5.90;55.10
2220;DHT22;1116;51.502;7.414;2024-01-27T08:59:38;6.00;55.00
2220;DHT22;1116;51.502;7.414;2024-01-27T09:02:08;6.10;54.70
2220;DHT22;1116;51.502;7.414;2024-01-27T09:04:38;6.20;54.90
2220;DHT22;1116;51.502;7.414;2024-01-27T09:07:08;6.30;54.50
2220;DHT22;1116;51.502;7.414;2024-01-27T09:09:38;6.30;54.00
2220;DHT22;1116;51.502;7.414;2024-01-27T09:12:10;6.40;54.30
2220;DHT22;1116;51.502;7.414;2024-01-27T09:14:40;6.40;53.20
2220;DHT22;1116;51.502;7.414;2024-01-27T09:17:10;6.50;53.00
2220;DHT22;1116;51.502;7.414;2024-01-27T09:19:40;6.60;52.80
2220;DHT22;1116;51.502;7.414;2024-01-27T09:22:10;6.60;52.80
2220;DHT22;1116;51.502;7.414;2024-01-27T09:24:40;6.70;52.90
2220;DHT22;1116;51.502;7.414;2024-01-27T09:27:13;6.80;53.00
2220;DHT22;1116;51.502;7.414;2024-01-27T09:29:44;6.90;53.00
2220;DHT22;1116;51.502;7.414;2024-01-27T09:32:14;6.90;52.40
2220;DHT22;1116;51.502;7.414;2024-01-27T09:34:43;7.00;53.10
2220;DHT22;1116;51.502;7.414;2024-01-27T09:37:14;7.10;52.10
2220;DHT22;1116;51.502;7.414;2024-01-27T09:39:43;7.20;52.10
2220;DHT22;1116;51.502;7.414;2024-01-27T09:42:20;7.20;51.30
2220;DHT22;1116;51.502;7.414;2024-01-27T09:44:51;7.20;51.10
2220;DHT22;1116;51.502;7.414;2024-01-27T09:47:22;7.30;50.80
2220;DHT22;1116;51.502;7.414;2024-01-27T09:49:52;7.40;50.90
2220;DHT22;1116;51.502;7.414;2024-01-27T09:52:22;7.50;50.00
2220;DHT22;1116;51.502;7.414;2024-01-27T09:54:52;7.50;49.70
2220;DHT22;1116;51.502;7.414;2024-01-27T09:57:25;7.60;49.40
2220;DHT22;1116;51.502;7.414;2024-01-27T09:59:56;7.70;49.30
2220;DHT22;1116;51.502;7.414;2024-01-27T10:02:27;7.90;48.80
2220;DHT22;1116;51.502;7.414;2024-01-27T10:04:59;8.10;47.60
2220;DHT22;1116;51.502;7.414;2024-01-27T10:07:30;8.30;47.60
2220;DHT22;1116;51.502;7.414;2024-01-27T10:10:00;8.50;45.90
2220;DHT22;1116;51.502;7.414;2024-01-27T10:12:32;8.50;46.70
2220;DHT22;1116;51.502;7.414;2024-01-27T10:15:06;9.90;43.20
2220;DHT22;1116;51.502;7.414;2024-01-27T10:17:36;11.70;36.30
2220;DHT22;1116;51.502;7.414;2024-01-27T10:20:06;13.20;31.70
2220;DHT22;1116;51.502;7.414;2024-01-27T10:22:40;14.30;27.20
2220;DHT22;1116;51.502;7.414;2024-01-27T10:25:12;14.50;24.80
2220;DHT22;1116;51.502;7.414;2024-01-27T10:27:46;14.80;24.20
2220;DHT22;1116;51.502;7.414;2024-01-27T10:30:17;15.50;22.30
2220;DHT22;1116;51.502;7.414;2024-01-27T10:32:57;15.90;21.00
2220;DHT22;1116;51.502;7.414;2024-01-27T10:35:28;16.20;20.10
2220;DHT22;1116;51.502;7.414;2024-01-27T10:37:58;16.40;19.70
2220;DHT22;1116;51.502;7.414;2024-01-27T10:40:28;16.60;18.80
2220;DHT22;1116;51.502;7.414;2024-01-27T10:43:04;16.80;18.60
2220;DHT22;1116;51.502;7.414;2024-01-27T10:45:38;16.80;18.80
2220;DHT22;1116;51.502;7.414;2024-01-27T10:48:10;16.70;17.90
2220;DHT22;1116;51.502;7.414;2024-01-27T10:50:42;17.00;18.10
2220;DHT22;1116;51.502;7.414;2024-01-27T10:53:20;17.40;16.90
2220;DHT22;1116;51.502;7.414;2024-01-27T10:55:54;17.70;16.10
2220;DHT22;1116;51.502;7.414;2024-01-27T10:58:30;18.10;16.30
2220;DHT22;1116;51.502;7.414;2024-01-27T11:01:02;18.50;14.60
2220;DHT22;1116;51.502;7.414;2024-01-27T11:03:33;17.40;15.80
2220;DHT22;1116;51.502;7.414;2024-01-27T11:06:05;16.80;16.30
2220;DHT22;1116;51.502;7.414;2024-01-27T11:08:35;17.10;17.10
2220;DHT22;1116;51.502;7.414;2024-01-27T11:11:10;17.10;16.80
2220;DHT22;1116;51.502;7.414;2024-01-27T11:13:43;16.80;17.60
2220;DHT22;1116;51.502;7.414;2024-01-27T11:16:15;17.10;16.30
2220;DHT22;1116;51.502;7.414;2024-01-27T11:18:48;16.80;15.30
2220;DHT22;1116;51.502;7.414;2024-01-27T11:21:19;16.80;16.30
2220;DHT22;1116;51.502;7.414;2024-01-27T11:23:49;16.60;16.40
2220;DHT22;1116;51.502;7.414;2024-01-27T11:26:22;16.70;17.60
2220;DHT22;1116;51.502;7.414;2024-01-27T11:29:06;17.10;16.20
2220;DHT22;1116;51.502;7.414;2024-01-27T11:31:45;17.40;16.20
2220;DHT22;1116;51.502;7.414;2024-01-27T11:34:17;17.30;15.70
2220;DHT22;1116;51.502;7.414;2024-01-27T11:36:48;16.80;15.90
2220;DHT22;1116;51.502;7.414;2024-01-27T11:39:28;16.90;16.70
2220;DHT22;1116;51.502;7.414;2024-01-27T11:42:05;17.20;15.60
2220;DHT22;1116;51.502;7.414;2024-01-27T11:44:39;17.80;15.70
2220;DHT22;1116;51.502;7.414;2024-01-27T11:47:15;18.30;14.80
2220;DHT22;1116;51.502;7.414;2024-01-27T11:49:51;18.20;13.40
2220;DHT22;1116;51.502;7.414;2024-01-27T11:52:23;18.00;13.40
2220;DHT22;1116;51.502;7.414;2024-01-27T11:54:56;18.20;13.30
2220;DHT22;1116;51.502;7.414;2024-01-27T11:57:26;18.30;14.10
2220;DHT22;1116;51.502;7.414;2024-01-27T11:59:59;18.30;12.40
2220;DHT22;1116;51.502;7.414;2024-01-27T12:02:30;17.60;13.00
2220;DHT22;1116;51.502;7.414;2024-01-27T12:05:00;17.40;14.30
2220;DHT22;1116;51.502;7.414;2024-01-27T12:07:30;17.20;14.30
2220;DHT22;1116;51.502;7.414;2024-01-27T12:10:00;17.60;13.90
2220;DHT22;1116;51.502;7.414;2024-01-27T12:12:30;17.90;13.80
2220;DHT22;1116;51.502;7.414;2024-01-27T12:15:03;17.60;12.50
2220;DHT22;1116;51.502;7.414;2024-01-27T12:17:34;17.50;13.10
2220;DHT22;1116;51.502;7.414;2024-01-27T12:20:14;17.10;14.20
2220;DHT22;1116;51.502;7.414;2024-01-27T12:22:45;16.80;15.40
2220;DHT22;1116;51.502;7.414;2024-01-27T12:25:16;16.50;16.40
2220;DHT22;1116;51.502;7.414;2024-01-27T12:27:46;16.20;15.40
2220;DHT22;1116;51.502;7.414;2024-01-27T12:30:18;15.70;16.00
2220;DHT22;1116;51.502;7.414;2024-01-27T12:32:51;15.10;17.20
2220;DHT22;1116;51.502;7.414;2024-01-27T12:35:21;15.00;19.10
2220;DHT22;1116;51.502;7.414;2024-01-27T12:37:51;14.70;18.90
2220;DHT22;1116;51.502;7.414;2024-01-27T12:40:21;14.50;19.70
2220;DHT22;1116;51.502;7.414;2024-01-27T12:42:51;14.40;19.30
2220;DHT22;1116;51.502;7.414;2024-01-27T12:45:21;14.40;20.20
2220;DHT22;1116;51.502;7.414;2024-01-27T12:47:56;14.40;20.30
2220;DHT22;1116;51.502;7.414;2024-01-27T12:50:26;14.30;21.10
2220;DHT22;1116;51.502;7.414;2024-01-27T12:52:57;14.10;20.40
2220;DHT22;1116;51.502;7.414;2024-01-27T12:55:27;13.90;21.70
2220;DHT22;1116;51.502;7.414;2024-01-27T12:57:57;13.70;22.90
2220;DHT22;1116;51.502;7.414;2024-01-27T13:00:29;13.60;22.10
2220;DHT22;1116;51.502;7.414;2024-01-27T13:02:59;13.70;21.80
2220;DHT22;1116;51.502;7.414;2024-01-27T13:05:29;13.50;23.10
2220;DHT22;1116;51.502;7.414;2024-01-27T13:08:01;13.50;23.20
2220;DHT22;1116;51.502;7.414;2024-01-27T13:10:31;13.30;22.00
2220;DHT22;1116;51.502;7.414;2024-01-27T13:13:01;13.30;22.90
2220;DHT22;1116;51.502;7.414;2024-01-27T13:15:34;13.20;22.90
2220;DHT22;1116;51.502;7.414;2024-01-27T13:18:04;13.10;22.80
2220;DHT22;1116;51.502;7.414;2024-01-27T13:20:35;12.90;23.90
2220;DHT22;1116;51.502;7.414;2024-01-27T13:23:04;12.90;22.70
2220;DHT22;1116;51.502;7.414;2024-01-27T13:25:34;12.70;22.50
2220;DHT22;1116;51.502;7.414;2024-01-27T13:28:04;12.70;25.30
2220;DHT22;1116;51.502;7.414;2024-01-27T13:30:40;12.80;25.00
2220;DHT22;1116;51.502;7.414;2024-01-27T13:33:11;12.80;25.20
2220;DHT22;1116;51.502;7.414;2024-01-27T13:35:41;13.00;24.70
2220;DHT22;1116;51.502;7.414;2024-01-27T13:38:13;12.80;24.10
2220;DHT22;1116;51.502;7.414;2024-01-27T13:40:46;12.80;22.20
2220;DHT22;1116;51.502;7.414;2024-01-27T13:43:16;12.70;22.50
2220;DHT22;1116;51.502;7.414;2024-01-27T13:45:49;12.50;22.40
2220;DHT22;1116;51.502;7.414;2024-01-27T13:48:19;12.50;22.40
2220;DHT22;1116;51.502;7.414;2024-01-27T13:50:49;12.60;22.40
2220;DHT22;1116;51.502;7.414;2024-01-27T13:53:19;12.60;23.80
2220;DHT22;1116;51.502;7.414;2024-01-27T13:56:04;12.70;22.50
2220;DHT22;1116;51.502;7.414;2024-01-27T13:58:34;12.80;22.60
2220;DHT22;1116;51.502;7.414;2024-01-27T14:01:07;13.20;22.90
2220;DHT22;1116;51.502;7.414;2024-01-27T14:03:38;13.70;21.20
2220;DHT22;1116;51.502;7.414;2024-01-27T14:06:08;14.50;20.50
2220;DHT22;1116;51.502;7.414;2024-01-27T14:08:40;15.00;18.40
2220;DHT22;1116;51.502;7.414;2024-01-27T14:11:10;15.20;17.10
2220;DHT22;1116;51.502;7.414;2024-01-27T14:13:40;15.30;17.10
2220;DHT22;1116;51.502;7.414;2024-01-27T14:16:13;15.50;17.20
2220;DHT22;1116;51.502;7.414;2024-01-27T14:18:47;15.40;16.60
2220;DHT22;1116;51.502;7.414;2024-01-27T14:21:17;15.30;16.60
2220;DHT22;1116;51.502;7.414;2024-01-27T14:23:47;15.20;15.90
2220;DHT22;1116;51.502;7.414;2024-01-27T14:26:17;14.90;17.10
2220;DHT22;1116;51.502;7.414;2024-01-27T14:28:47;14.90;17.40
2220;DHT22;1116;51.502;7.414;2024-01-27T14:31:19;14.50;16.60
2220;DHT22;1116;51.502;7.414;2024-01-27T14:33:49;14.20;18.60
2220;DHT22;1116;51.502;7.414;2024-01-27T14:36:20;13.80;18.80
2220;DHT22;1116;51.502;7.414;2024-01-27T14:38:50;13.30;19.30
2220;DHT22;1116;51.502;7.414;2024-01-27T14:41:20;13.10;19.80
2220;DHT22;1116;51.502;7.414;2024-01-27T14:43:50;12.90;19.50
2220;DHT22;1116;51.502;7.414;2024-01-27T14:46:23;12.70;21.10
2220;DHT22;1116;51.502;7.414;2024-01-27T14:48:53;12.60;22.20
2220;DHT22;1116;51.502;7.414;2024-01-27T14:51:23;12.30;22.30
2220;DHT22;1116;51.502;7.414;2024-01-27T14:53:53;12.00;23.10
2220;DHT22;1116;51.502;7.414;2024-01-27T14:56:24;11.70;24.00
2220;DHT22;1116;51.502;7.414;2024-01-27T14:58:54;11.50;24.20
2220;DHT22;1116;51.502;7.414;2024-01-27T15:01:26;11.40;25.60
2220;DHT22;1116;51.502;7.414;2024-01-27T15:03:57;11.20;26.00
2220;DHT22;1116;51.502;7.414;2024-01-27T15:06:27;11.20;26.10
2220;DHT22;1116;51.502;7.414;2024-01-27T15:08:57;11.10;26.10
2220;DHT22;1116;51.502;7.414;2024-01-27T15:11:27;10.90;26.10
2220;DHT22;1116;51.502;7.414;2024-01-27T15:13:57;10.80;26.20
2220;DHT22;1116;51.502;7.414;2024-01-27T15:16:31;10.80;27.10
2220;DHT22;1116;51.502;7.414;2024-01-27T15:19:01;10.70;27.30
2220;DHT22;1116;51.502;7.414;2024-01-27T15:21:31;10.60;27.10
2220;DHT22;1116;51.502;7.414;2024-01-27T15:24:01;10.60;27.80
2220;DHT22;1116;51.502;7.414;2024-01-27T15:26:31;10.60;27.30
2220;DHT22;1116;51.502;7.414;2024-01-27T15:29:01;10.50;27.80
2220;DHT22;1116;51.502;7.414;2024-01-27T15:31:34;10.40;27.50
2220;DHT22;1116;51.502;7.414;2024-01-27T15:34:04;10.30;29.40
2220;DHT22;1116;51.502;7.414;2024-01-27T15:36:35;10.30;27.90
2220;DHT22;1116;51.502;7.414;2024-01-27T15:39:05;10.40;30.50
2220;DHT22;1116;51.502;7.414;2024-01-27T15:41:36;10.20;30.60
2220;DHT22;1116;51.502;7.414;2024-01-27T15:44:07;10.10;30.50
2220;DHT22;1116;51.502;7.414;2024-01-27T15:46:39;9.90;32.40
2220;DHT22;1116;51.502;7.414;2024-01-27T15:49:09;9.90;32.80
2220;DHT22;1116;51.502;7.414;2024-01-27T15:51:39;9.70;33.90
2220;DHT22;1116;51.502;7.414;2024-01-27T15:54:10;9.70;32.40
2220;DHT22;1116;51.502;7.414;2024-01-27T15:56:40;9.70;35.60
2220;DHT22;1116;51.502;7.414;2024-01-27T15:59:09;9.60;33.90
2220;DHT22;1116;51.502;7.414;2024-01-27T16:01:42;9.60;34.40
2220;DHT22;1116;51.502;7.414;2024-01-27T16:04:13;9.40;35.80
2220;DHT22;1116;51.502;7.414;2024-01-27T16:06:45;9.40;36.90
2220;DHT22;1116;51.502;7.414;2024-01-27T16:09:15;9.30;38.30
2220;DHT22;1116;51.502;7.414;2024-01-27T16:11:45;9.20;35.80
2220;DHT22;1116;51.502;7.414;2024-01-27T16:14:15;9.20;36.90
2220;DHT22;1116;51.502;7.414;2024-01-27T16:16:48;9.10;37.50
2220;DHT22;1116;51.502;7.414;2024-01-27T16:19:17;9.00;38.40
2220;DHT22;1116;51.502;7.414;2024-01-27T16:21:48;8.90;36.70
2220;DHT22;1116;51.502;7.414;2024-01-27T16:24:18;8.90;37.80
2220;DHT22;1116;51.502;7.414;2024-01-27T16:26:47;8.40;38.60
2220;DHT22;1116;51.502;7.414;2024-01-27T16:29:17;8.70;39.00
2220;DHT22;1116;51.502;7.414;2024-01-27T16:31:50;8.70;40.90
2220;DHT22;1116;51.502;7.414;2024-01-27T16:34:20;8.60;42.60
2220;DHT22;1116;51.502;7.414;2024-01-27T16:36:50;8.50;42.50